EDT,Max TemperatureF,Mean TemperatureF,Min TemperatureF,Max Dew PointF,MeanDew PointF,Min DewpointF,Max Humidity, Mean Humidity, Min Humidity, Max Sea Level PressureIn, Mean Sea Level PressureIn, Min Sea Level PressureIn, Max VisibilityMiles, Mean VisibilityMiles, Min VisibilityMiles, Max Wind SpeedMPH, Mean Wind SpeedMPH, Max Gust SpeedMPH,PrecipitationIn, CloudCover, Events, WindDirDegrees
2012-10-1,70,59,48,52,49,45,93,85,77,29.97,29.83,29.76,10,10,10,22,9,30,0.00,3,,242
2012-10-2,70,63,55,60,55,51,96,82,54,30.07,30.03,29.96,10,8,1,10,4,12,0.36,7,Rain,236
2012-10-3,67,64,60,65,61,59,100,95,91,30.15,30.08,30.04,6,2,0,9,6,15,T,8,Rain,19
2012-10-4,66,64,61,63,61,59,100,91,79,30.16,30.10,30.04,10,7,2,10,5,14,0.17,8,Rain,5
2012-10-5,77,66,54,63,58,52,90,65,40,30.05,30.01,29.94,10,5,0,15,4,20,0.00,4,Fog,267
2012-10-6,78,64,50,64,58,44,100,77,54,29.96,29.85,29.75,10,7,0,25,9,35,0.09,4,Fog-Rain,207
2012-10-7,59,52,44,49,43,38,89,68,47,30.09,30.04,29.97,10,9,5,10,4,14,0.19,6,Rain,287
2012-10-8,57,49,40,46,43,39,92,74,55,30.31,30.22,30.09,10,10,10,12,4,16,T,6,Fog-Rain,336
2012-10-9,59,55,51,49,47,45,89,78,67,30.29,30.21,30.13,10,10,10,17,10,21,T,8,,43
2012-10-10,64,57,50,61,55,43,100,81,61,30.13,29.93,29.74,10,6,1,23,7,30,0.34,7,Rain,54
2012-10-11,60,52,43,40,37,33,76,57,37,30.16,30.07,29.87,10,10,10,18,8,26,0.00,1,,270
2012-10-12,58,48,37,43,35,24,89,64,39,30.38,30.15,30.04,10,10,10,20,8,25,0.01,4,Rain,311
2012-10-13,53,42,31,34,25,21,72,50,28,30.50,30.42,30.34,10,10,9,14,6,22,0.00,2,,271
2012-10-14,69,55,41,56,49,36,84,70,55,30.32,30.12,29.99,10,10,9,26,10,35,0.01,6,Rain,205
2012-10-15,73,68,62,63,61,57,93,79,64,29.98,29.76,29.62,10,9,2,24,13,31,0.23,6,Rain,200
2012-10-16,63,53,43,60,40,33,93,67,40,29.89,29.71,29.59,10,10,10,24,10,32,0.03,3,Rain,297
2012-10-17,63,50,36,43,37,31,86,58,30,30.02,29.96,29.90,10,10,10,12,3,14,0.00,4,,295
2012-10-18,63,52,40,52,47,38,96,78,60,30.12,30.08,30.03,10,10,7,14,5,17,0.00,3,Fog,147
2012-10-19,68,60,52,65,59,51,100,84,68,30.07,29.89,29.74,10,8,2,24,10,33,0.23,8,Rain,124
2012-10-20,74,63,52,66,60,43,100,68,35,29.78,29.70,29.64,10,7,1,23,8,31,0.46,6,Rain-Thunderstorm,193
2012-10-21,65,55,45,42,40,36,83,61,39,29.93,29.88,29.80,10,10,10,17,7,24,0.00,1,,258
2012-10-22,66,58,49,43,41,39,71,56,40,30.02,29.96,29.93,10,10,10,21,10,29,0.00,1,,273
2012-10-23,67,55,43,51,44,40,89,79,68,30.12,30.07,30.03,10,10,8,14,4,17,0.06,5,Rain,253
2012-10-24,56,52,48,51,43,41,90,68,51,30.23,30.17,30.13,10,10,10,12,5,14,T,8,Rain,35
2012-10-25,62,53,43,46,42,29,86,57,27,30.32,30.27,30.23,10,10,10,12,3,13,0.00,4,,184
2012-10-26,65,55,44,52,47,43,93,77,60,30.27,30.21,30.14,10,10,7,16,4,20,0.00,3,,158
2012-10-27,67,59,50,55,51,45,96,77,58,30.13,30.05,29.99,10,10,7,14,6,18,0.00,7,,43
2012-10-28,58,55,52,52,50,48,96,84,72,29.99,29.88,29.71,10,8,2,26,15,33,0.04,8,Rain,41
2012-10-29,67,60,53,62,57,51,97,89,81,29.70,29.33,29.04,10,3,1,41,24,59,0.76,8,Rain,64
2012-10-30,68,61,53,59,56,53,100,84,67,29.56,29.49,29.29,10,7,2,20,8,25,0.58,7,Rain,142
2012-10-31,55,52,48,54,48,41,100,83,66,29.59,29.52,29.47,10,7,0,15,6,18,0.07,7,Fog-Rain,221